Time;durP1;ratioP1;P1;durP2;ratioP2;P2;SDS_P1;SDS_P2;PMS_P1;PMS_P2;Temp;Humidity;BMP_temperature;BMP_pressure;BME280_temperature;BME280_humidity;BME280_pressure;Samples;Min_cycle;Max_cycle;Signal;HPM_P1;HPM_P2
2022/04/10 00:02:11;;;;;;;6.17;3.30;;;;;;;2.07;72.91;101763.50;4977938;28;20039;-79
2022/04/10 00:04:37;;;;;;;7.07;3.30;;;;;;;2.06;72.98;101766.91;4981083;28;20026;-79
2022/04/10 00:07:02;;;;;;;7.77;3.50;;;;;;;2.05;73.10;101767.75;4980204;28;20030;-79
2022/04/10 00:09:27;;;;;;;9.97;3.73;;;;;;;2.05;72.72;101757.50;4963703;28;20044;-79
2022/04/10 00:11:53;;;;;;;6.13;3.57;;;;;;;2.05;72.94;101765.19;4980192;28;20062;-79
2022/04/10 00:14:18;;;;;;;9.53;3.70;;;;;;;2.03;73.02;101759.16;4976321;28;20065;-80
2022/04/10 00:16:43;;;;;;;8.70;3.70;;;;;;;2.01;73.23;101764.22;4979140;28;20537;-79
2022/04/10 00:19:08;;;;;;;9.27;4.10;;;;;;;2.00;73.52;101771.91;4980073;28;20089;-79
2022/04/10 00:21:34;;;;;;;9.20;3.80;;;;;;;1.97;73.18;101763.28;4979661;28;20098;-80
2022/04/10 00:23:59;;;;;;;9.07;3.57;;;;;;;1.97;73.47;101767.53;4978913;28;20047;-79
2022/04/10 00:26:25;;;;;;;6.30;3.63;;;;;;;1.97;73.65;101768.41;4974894;28;20074;-79
2022/04/10 00:28:51;;;;;;;6.27;3.37;;;;;;;1.96;73.49;101764.13;4981068;28;20121;-79
2022/04/10 00:31:17;;;;;;;8.63;3.70;;;;;;;1.95;73.58;101767.50;4976570;28;20030;-78
2022/04/10 00:33:43;;;;;;;6.43;3.43;;;;;;;1.95;73.35;101759.81;4980153;28;20023;-79
2022/04/10 00:36:09;;;;;;;7.67;3.70;;;;;;;1.95;73.51;101761.53;4976240;28;20027;-79
2022/04/10 00:38:34;;;;;;;11.60;4.00;;;;;;;1.93;73.43;101753.78;4978384;28;20034;-80
2022/04/10 00:40:59;;;;;;;7.63;3.80;;;;;;;1.93;73.58;101764.03;4958129;28;20031;-80
2022/04/10 00:43:30;;;;;;;9.13;3.67;;;;;;;1.94;73.36;101757.22;4975390;28;20070;-80
2022/04/10 00:45:57;;;;;;;9.00;3.67;;;;;;;1.93;73.28;101761.47;4961797;28;20046;-79
2022/04/10 00:48:23;;;;;;;6.33;3.60;;;;;;;1.92;73.24;101759.72;4974771;28;20029;-79
2022/04/10 00:53:32;;;;;;;9.50;3.80;;;;;;;1.88;73.40;101757.06;4983506;28;20393;-79
2022/04/10 00:55:58;;;;;;;9.03;3.90;;;;;;;1.86;73.38;101757.03;4977416;28;20030;-79
2022/04/10 00:58:24;;;;;;;10.30;3.70;;;;;;;1.85;73.41;101751.84;4978716;28;20116;-79
2022/04/10 01:00:49;;;;;;;8.83;3.90;;;;;;;1.84;73.32;101750.09;4976129;28;20045;-79
2022/04/10 01:03:14;;;;;;;7.97;3.63;;;;;;;1.84;73.71;101744.97;4978462;28;20041;-79
2022/04/10 01:05:42;;;;;;;9.23;3.70;;;;;;;1.82;73.81;101750.09;4979628;28;20033;-79
2022/04/10 01:08:08;;;;;;;8.50;3.70;;;;;;;1.81;73.52;101750.91;4977073;28;20034;-79
2022/04/10 01:10:33;;;;;;;8.07;3.63;;;;;;;1.80;73.69;101751.72;4975670;28;20026;-79
2022/04/10 01:13:00;;;;;;;9.57;4.10;;;;;;;1.78;73.72;101755.94;4976726;28;20078;-79
2022/04/10 01:15:25;;;;;;;7.93;3.60;;;;;;;1.79;73.77;101753.41;4974214;28;20031;-79
2022/04/10 01:17:50;;;;;;;8.43;3.83;;;;;;;1.80;73.77;101751.72;4973390;28;20441;-79
2022/04/10 01:20:16;;;;;;;8.27;3.57;;;;;;;1.80;73.67;101756.88;4977141;28;20073;-79
2022/04/10 01:22:41;;;;;;;7.40;3.40;;;;;;;1.78;73.44;101751.72;4981088;28;20071;-80
2022/04/10 01:25:08;;;;;;;8.30;3.83;;;;;;;1.78;73.74;101755.94;4980259;28;20026;-79
2022/04/10 01:27:37;;;;;;;8.60;4.10;;;;;;;1.75;73.78;101755.88;4975127;28;20403;-79
2022/04/10 01:30:04;;;;;;;10.40;3.90;;;;;;;1.72;74.05;101759.22;4974305;28;20034;-79
2022/04/10 01:32:29;;;;;;;7.53;3.80;;;;;;;1.72;73.80;101755.78;4980687;28;20022;-79
2022/04/10 01:34:59;;;;;;;9.13;3.77;;;;;;;1.70;74.05;101753.19;4973644;28;20490;-80
2022/04/10 01:37:25;;;;;;;9.07;3.70;;;;;;;1.70;74.08;101757.47;4972907;28;20033;-79
2022/04/10 01:39:50;;;;;;;10.93;4.20;;;;;;;1.70;74.04;101762.59;4975091;28;20060;-79
2022/04/10 01:42:15;;;;;;;7.50;3.93;;;;;;;1.69;74.23;101763.44;4977936;28;20046;-79
2022/04/10 01:44:42;;;;;;;11.50;4.30;;;;;;;1.67;73.86;101759.13;4975592;28;20092;-79
2022/04/10 01:47:07;;;;;;;10.23;4.17;;;;;;;1.67;73.94;101764.25;4976996;28;20062;-79
2022/04/10 01:49:33;;;;;;;10.73;4.37;;;;;;;1.66;74.39;101766.75;4974746;28;20448;-79
2022/04/10 01:51:58;;;;;;;6.63;3.93;;;;;;;1.64;74.05;101764.16;4977187;28;20038;-79
2022/04/10 01:54:23;;;;;;;9.17;4.27;;;;;;;1.63;74.34;101767.56;4975937;28;20026;-80
2022/04/10 01:56:48;;;;;;;9.13;4.00;;;;;;;1.62;74.27;101765.81;4956178;28;20043;-79
2022/04/10 01:59:14;;;;;;;7.80;3.93;;;;;;;1.61;74.37;101769.22;4975165;28;20397;-79
2022/04/10 02:01:39;;;;;;;10.67;3.97;;;;;;;1.61;74.38;101768.38;4984608;28;20062;-79
2022/04/10 02:04:04;;;;;;;9.10;4.17;;;;;;;1.61;74.41;101764.09;4983481;28;20045;-79
2022/04/10 02:06:30;;;;;;;7.90;4.27;;;;;;;1.61;74.23;101779.47;4982067;28;20392;-79
2022/04/10 02:08:55;;;;;;;9.47;4.07;;;;;;;1.59;74.32;101770.88;4988008;28;20505;-79
2022/04/10 02:11:21;;;;;;;10.13;4.23;;;;;;;1.59;74.44;101783.69;4969738;28;20041;-79
2022/04/10 02:13:47;;;;;;;8.57;4.27;;;;;;;1.58;74.92;101784.50;4985201;28;20074;-79
2022/04/10 02:16:15;;;;;;;11.60;4.40;;;;;;;1.57;74.59;101782.78;4980585;28;20497;-79
2022/04/10 02:18:41;;;;;;;10.53;4.13;;;;;;;1.57;74.70;101782.78;4984878;28;20046;-79
2022/04/10 02:21:06;;;;;;;8.80;4.60;;;;;;;1.56;74.47;101786.16;4978390;28;20031;-79
2022/04/10 02:23:32;;;;;;;9.30;4.70;;;;;;;1.56;74.63;101785.31;4977793;28;20026;-79
2022/04/10 02:25:57;;;;;;;7.80;3.97;;;;;;;1.56;74.69;101780.19;4978472;28;20038;-79
2022/04/10 02:28:22;;;;;;;7.73;4.33;;;;;;;1.57;74.81;101781.94;4982946;28;20030;-79
2022/04/10 02:30:48;;;;;;;6.67;3.97;;;;;;;1.55;74.78;101784.44;4985136;28;20190;-79
2022/04/10 02:33:13;;;;;;;9.37;4.07;;;;;;;1.55;75.01;101779.31;4979450;28;20046;-79
2022/04/10 02:35:40;;;;;;;8.30;4.30;;;;;;;1.56;75.16;101787.88;4977262;28;20114;-79
2022/04/10 02:38:05;;;;;;;7.60;4.03;;;;;;;1.57;75.27;101789.63;4976364;28;20466;-79
2022/04/10 02:40:31;;;;;;;10.30;4.30;;;;;;;1.58;74.82;101789.66;4981058;28;20042;-79
2022/04/10 02:42:56;;;;;;;8.50;4.37;;;;;;;1.59;75.35;101785.41;4981505;28;20030;-79
2022/04/10 02:45:21;;;;;;;9.60;4.33;;;;;;;1.60;75.02;101787.13;4977826;28;20042;-79
2022/04/10 02:47:46;;;;;;;9.67;4.13;;;;;;;1.59;75.50;101782.84;4976772;28;20037;-79
2022/04/10 02:50:13;;;;;;;9.23;4.57;;;;;;;1.59;75.44;101787.97;4980270;28;20436;-79
2022/04/10 02:52:39;;;;;;;13.17;5.03;;;;;;;1.59;75.24;101799.06;4982242;28;20552;-79
2022/04/10 02:55:05;;;;;;;8.50;4.67;;;;;;;1.58;75.18;101792.22;4977646;28;20325;-79
2022/04/10 02:57:30;;;;;;;10.23;4.73;;;;;;;1.57;75.45;101787.06;4980287;28;20432;-79
2022/04/10 02:59:55;;;;;;;10.27;4.80;;;;;;;1.56;75.30;101795.56;4982546;28;20066;-79
2022/04/10 03:02:20;;;;;;;9.97;5.13;;;;;;;1.55;75.21;101799.81;4981422;28;20105;-79
2022/04/10 03:04:46;;;;;;;10.87;4.90;;;;;;;1.54;75.20;101798.06;4979260;28;20035;-79
2022/04/10 03:07:11;;;;;;;11.60;5.37;;;;;;;1.53;75.27;101801.50;4978043;28;20034;-79
2022/04/10 03:09:36;;;;;;;8.03;5.13;;;;;;;1.52;75.45;101800.63;4986765;28;20126;-79
2022/04/10 03:12:04;;;;;;;9.37;5.10;;;;;;;1.52;75.31;101799.75;4977318;28;20394;-79
2022/04/10 03:14:29;;;;;;;10.53;5.20;;;;;;;1.53;75.79;101801.50;4977416;28;20117;-79
2022/04/10 03:16:56;;;;;;;9.37;5.03;;;;;;;1.52;76.07;101803.19;4978700;28;20446;-79
2022/04/10 03:19:21;;;;;;;10.40;5.30;;;;;;;1.51;75.56;101808.28;4962059;28;20053;-79
2022/04/10 03:21:46;;;;;;;9.40;5.90;;;;;;;1.52;75.79;101810.00;4976237;28;20466;-79
2022/04/10 03:24:12;;;;;;;10.23;5.23;;;;;;;1.49;76.06;101808.22;4978914;28;20030;-79
2022/04/10 03:26:37;;;;;;;10.13;5.67;;;;;;;1.48;75.71;101809.03;4977239;28;20375;-79
2022/04/10 03:29:02;;;;;;;9.53;5.67;;;;;;;1.49;76.28;101807.38;4959893;28;20057;-79
2022/04/10 03:31:27;;;;;;;9.50;5.77;;;;;;;1.48;76.07;101808.19;4976310;28;20723;-79
2022/04/10 03:33:53;;;;;;;8.77;5.57;;;;;;;1.47;76.49;101814.13;4977534;28;20089;-79
2022/04/10 03:36:18;;;;;;;12.23;6.17;;;;;;;1.47;76.34;101811.56;4976097;28;20069;-79
2022/04/10 03:38:43;;;;;;;10.37;5.80;;;;;;;1.46;76.37;101805.56;4979928;28;20371;-79
2022/04/10 03:41:09;;;;;;;13.40;6.73;;;;;;;1.47;76.50;101812.44;4976825;28;20026;-79
2022/04/10 03:43:34;;;;;;;8.40;5.90;;;;;;;1.47;76.31;101812.44;4980184;28;20119;-79
2022/04/10 03:46:00;;;;;;;10.73;6.33;;;;;;;1.48;76.63;101816.75;4979740;28;20038;-79
2022/04/10 03:48:25;;;;;;;9.77;6.07;;;;;;;1.47;76.29;101817.56;4976439;28;20042;-80
2022/04/10 03:50:51;;;;;;;10.50;6.50;;;;;;;1.47;76.28;101814.13;4982542;28;20042;-79
2022/04/10 03:53:16;;;;;;;13.03;6.50;;;;;;;1.48;76.48;101818.44;4978368;28;20134;-79
2022/04/10 03:55:42;;;;;;;12.03;6.90;;;;;;;1.46;76.32;101820.94;4979095;28;20519;-79
2022/04/10 03:58:07;;;;;;;12.80;6.50;;;;;;;1.46;76.52;101831.22;4975982;28;20034;-79
2022/04/10 04:00:32;;;;;;;12.33;6.53;;;;;;;1.45;76.59;101819.22;4977992;28;20117;-79
2022/04/10 04:02:58;;;;;;;10.60;6.50;;;;;;;1.45;76.54;101821.78;4978149;28;20464;-79
2022/04/10 04:05:23;;;;;;;10.63;6.40;;;;;;;1.46;76.88;101826.06;4978193;28;20026;-79
2022/04/10 04:07:49;;;;;;;11.50;6.90;;;;;;;1.47;76.77;101832.09;4963112;28;20034;-79
2022/04/10 04:10:14;;;;;;;11.57;6.43;;;;;;;1.48;76.47;101831.25;4979816;28;20039;-79
2022/04/10 04:12:39;;;;;;;10.30;6.60;;;;;;;1.48;76.57;101828.69;4980488;28;20022;-79
2022/04/10 04:15:05;;;;;;;10.60;6.80;;;;;;;1.48;76.46;101828.69;4976820;28;20117;-79
2022/04/10 04:17:31;;;;;;;12.03;6.83;;;;;;;1.48;76.78;101836.41;4976059;28;20104;-79
2022/04/10 04:19:56;;;;;;;11.67;6.40;;;;;;;1.49;76.71;101835.56;4980201;28;20039;-79
2022/04/10 04:22:21;;;;;;;9.90;6.50;;;;;;;1.49;76.76;101839.00;4975319;28;20019;-79
2022/04/10 04:24:47;;;;;;;11.40;6.57;;;;;;;1.48;76.73;101838.97;4957817;28;20109;-79
2022/04/10 04:27:12;;;;;;;10.60;6.77;;;;;;;1.47;76.49;101839.78;4975456;28;20114;-79
2022/04/10 04:29:38;;;;;;;11.70;7.00;;;;;;;1.47;76.97;101834.66;4975709;28;20485;-79
2022/04/10 04:32:04;;;;;;;10.67;6.60;;;;;;;1.46;76.68;101841.47;4975362;28;20045;-79
2022/04/10 04:34:29;;;;;;;12.70;6.83;;;;;;;1.47;76.78;101843.19;4976093;28;20176;-79
2022/04/10 04:36:55;;;;;;;15.73;7.17;;;;;;;1.47;76.82;101842.34;4976739;28;20030;-79
2022/04/10 04:39:20;;;;;;;11.40;6.67;;;;;;;1.46;76.46;101844.03;4982109;28;20389;-79
2022/04/10 04:41:45;;;;;;;9.47;6.83;;;;;;;1.47;76.54;101852.59;4984145;28;20027;-79
2022/04/10 04:44:11;;;;;;;10.53;6.20;;;;;;;1.47;77.09;101850.91;4982667;28;20026;-79
2022/04/10 04:46:36;;;;;;;12.83;6.80;;;;;;;1.47;76.82;101847.47;4973724;28;20390;-79
2022/04/10 04:49:02;;;;;;;9.90;6.47;;;;;;;1.48;76.88;101856.91;4958820;28;20019;-79
2022/04/10 04:51:28;;;;;;;11.93;6.17;;;;;;;1.46;76.78;101854.28;4976318;28;20485;-79
2022/04/10 04:53:53;;;;;;;11.50;6.13;;;;;;;1.45;76.66;101860.25;4975241;28;20019;-79
2022/04/10 04:56:19;;;;;;;9.93;6.13;;;;;;;1.45;76.58;101849.13;4976206;28;20058;-79
2022/04/10 04:58:44;;;;;;;9.60;6.00;;;;;;;1.42;76.78;101854.16;4978291;28;20014;-79
2022/04/10 05:01:09;;;;;;;9.93;6.47;;;;;;;1.42;76.83;101854.16;4974952;28;20034;-79
2022/04/10 05:03:35;;;;;;;12.10;6.20;;;;;;;1.42;76.62;101855.03;4976657;28;20023;-79
2022/04/10 05:06:00;;;;;;;14.30;6.80;;;;;;;1.43;76.50;101861.03;4959727;28;20093;-79
2022/04/10 05:08:26;;;;;;;9.67;6.00;;;;;;;1.42;76.88;101855.03;4980519;28;20461;-79
2022/04/10 05:10:51;;;;;;;10.17;6.63;;;;;;;1.44;76.73;101865.34;4976043;28;20498;-79
2022/04/10 05:13:16;;;;;;;10.87;6.43;;;;;;;1.44;76.91;101867.91;4975492;28;20324;-79
2022/04/10 05:15:41;;;;;;;14.57;6.93;;;;;;;1.44;76.82;101863.66;4976767;28;20578;-79
2022/04/10 05:18:07;;;;;;;13.40;6.80;;;;;;;1.46;77.04;101871.38;4974307;28;20033;-79
2022/04/10 05:20:32;;;;;;;11.07;7.13;;;;;;;1.47;77.05;101870.56;4976550;28;20122;-78
2022/04/10 05:22:57;;;;;;;13.23;7.37;;;;;;;1.48;76.76;101869.72;4984314;28;20088;-79
2022/04/10 05:25:23;;;;;;;11.43;6.53;;;;;;;1.50;76.83;101870.66;4983352;28;20497;-79
2022/04/10 05:27:48;;;;;;;10.80;6.47;;;;;;;1.50;77.02;101868.09;4983876;28;20030;-78
2022/04/10 05:30:13;;;;;;;11.13;7.03;;;;;;;1.52;77.14;101882.69;4983925;28;20041;-79
2022/04/10 05:32:42;;;;;;;10.33;6.70;;;;;;;1.56;77.09;101885.34;4982103;28;20075;-79
2022/04/10 05:35:11;;;;;;;13.63;6.60;;;;;;;1.59;77.19;101888.84;4984092;28;20096;-79
2022/04/10 05:37:37;;;;;;;12.60;6.77;;;;;;;1.62;77.26;101894.06;4980971;28;20022;-79
2022/04/10 05:40:03;;;;;;;10.60;6.53;;;;;;;1.66;77.36;101890.78;4985515;28;20030;-79
2022/04/10 05:42:28;;;;;;;11.43;6.53;;;;;;;1.70;77.07;101890.88;4983673;28;20165;-79
2022/04/10 05:45:04;;;;;;;11.53;6.77;;;;;;;1.75;76.95;101894.41;4983045;28;20208;-78
2022/04/10 05:47:29;;;;;;;13.33;6.60;;;;;;;1.79;77.16;101896.25;4984748;28;20476;-79
2022/04/10 05:49:55;;;;;;;13.27;6.40;;;;;;;1.82;77.54;101901.47;4984210;28;20030;-79
2022/04/10 05:52:21;;;;;;;12.60;6.13;;;;;;;1.86;77.47;101908.41;4983160;28;20030;-79
2022/04/10 05:54:46;;;;;;;9.90;6.33;;;;;;;1.91;76.85;101908.53;4983451;28;20097;-79
2022/04/10 05:57:11;;;;;;;11.83;6.10;;;;;;;1.93;77.21;101912.03;4982809;28;20041;-79
2022/04/10 05:59:36;;;;;;;10.03;6.50;;;;;;;1.98;77.22;101907.84;4983462;28;20358;-79
2022/04/10 06:02:02;;;;;;;9.93;6.77;;;;;;;2.03;77.19;101915.72;4984873;28;20080;-79
2022/04/10 06:04:27;;;;;;;8.63;6.30;;;;;;;2.09;77.18;101926.13;4984146;28;20038;-79
2022/04/10 06:06:52;;;;;;;9.90;6.53;;;;;;;2.13;77.10;101933.09;4984950;28;20057;-79
2022/04/10 06:09:18;;;;;;;9.60;6.23;;;;;;;2.18;76.96;101931.53;4983727;28;20097;-79
2022/04/10 06:11:43;;;;;;;13.60;6.07;;;;;;;2.22;77.15;101938.44;4983115;28;20058;-79
2022/04/10 06:14:08;;;;;;;7.47;5.30;;;;;;;2.25;76.94;101933.41;4984358;28;20030;-79
2022/04/10 06:16:34;;;;;;;11.93;5.97;;;;;;;2.26;76.88;101942.84;4985137;28;20046;-79
2022/04/10 06:18:59;;;;;;;13.97;6.57;;;;;;;2.26;76.73;101940.28;4968286;28;20112;-79
2022/04/10 06:21:24;;;;;;;15.57;6.43;;;;;;;2.28;76.89;101943.75;4983979;28;20490;-78
2022/04/10 06:23:49;;;;;;;10.63;6.00;;;;;;;2.33;76.90;101940.44;4982564;28;20027;-79
2022/04/10 06:26:15;;;;;;;9.40;6.23;;;;;;;2.37;76.81;101948.28;4983585;28;20042;-79
2022/04/10 06:28:40;;;;;;;11.43;6.23;;;;;;;2.42;76.59;101948.38;4983353;28;20048;-78
2022/04/10 06:31:05;;;;;;;10.60;6.03;;;;;;;2.46;76.33;101941.66;4985181;28;20037;-78
2022/04/10 06:33:30;;;;;;;17.43;7.07;;;;;;;2.49;76.27;101957.09;4985503;28;20050;-79
2022/04/10 06:35:56;;;;;;;11.37;6.60;;;;;;;2.53;76.32;101959.81;4983902;28;20034;-79
2022/04/10 06:38:21;;;;;;;10.37;7.00;;;;;;;2.57;76.71;101951.34;4984591;28;20030;-79
2022/04/10 06:40:48;;;;;;;13.17;7.33;;;;;;;2.62;76.46;101953.16;4984886;28;20663;-79
2022/04/10 06:43:13;;;;;;;12.10;6.53;;;;;;;2.67;76.59;101959.28;4983892;28;20027;-79
2022/04/10 06:45:38;;;;;;;12.67;6.40;;;;;;;2.73;76.93;101967.16;4985780;28;20038;-79
2022/04/10 06:48:06;;;;;;;9.80;6.13;;;;;;;2.79;76.77;101962.16;4986572;28;20030;-79
2022/04/10 06:50:31;;;;;;;15.07;6.73;;;;;;;2.86;76.74;101969.19;4970602;28;20312;-79
2022/04/10 06:52:57;;;;;;;13.83;6.80;;;;;;;2.93;76.69;101969.31;4987040;28;20536;-79
2022/04/10 06:55:22;;;;;;;12.23;6.77;;;;;;;2.97;76.90;101971.16;4987691;28;20035;-79
2022/04/10 06:57:47;;;;;;;11.77;6.13;;;;;;;3.04;76.90;101967.91;4987588;28;20778;-78
2022/04/10 07:00:13;;;;;;;12.83;6.53;;;;;;;3.10;76.57;101968.03;4986352;28;20113;-79
2022/04/10 07:02:38;;;;;;;9.33;5.50;;;;;;;3.16;75.95;101973.31;4987107;28;20041;-79
2022/04/10 07:05:05;;;;;;;10.53;5.37;;;;;;;3.24;76.06;101975.22;4989805;28;20030;-79
2022/04/10 07:07:30;;;;;;;10.87;5.50;;;;;;;3.30;76.11;101975.34;4987562;28;20026;-79
2022/04/10 07:09:56;;;;;;;10.93;4.93;;;;;;;3.37;75.59;101981.50;4985507;28;20096;-79
2022/04/10 07:12:21;;;;;;;8.03;4.90;;;;;;;3.42;75.46;101980.75;4984677;28;20035;-79
2022/04/10 07:14:46;;;;;;;10.07;4.93;;;;;;;3.50;75.40;101980.94;4989123;28;20030;-78
2022/04/10 07:17:12;;;;;;;10.87;5.07;;;;;;;3.55;75.24;101981.91;4988584;28;20053;-79
2022/04/10 07:19:37;;;;;;;13.77;4.57;;;;;;;3.61;75.41;101986.31;4988684;28;20034;-78
2022/04/10 07:24:46;;;;;;;7.90;3.93;;;;;;;3.73;75.46;101989.16;4987549;28;20120;-79
2022/04/10 07:27:12;;;;;;;10.33;3.97;;;;;;;3.79;75.04;101988.41;4986401;28;20089;-79
2022/04/10 07:29:37;;;;;;;11.90;3.93;;;;;;;3.87;75.10;101988.56;4987661;28;20378;-78
2022/04/10 07:32:03;;;;;;;11.17;4.00;;;;;;;3.93;74.72;101993.84;4969254;28;20493;-79
2022/04/10 07:34:29;;;;;;;7.13;3.87;;;;;;;3.99;74.61;101991.41;4970916;28;20066;-78
2022/04/10 07:36:54;;;;;;;7.85;3.65;;;;;;;4.04;74.64;101992.38;4987743;28;20061;-79
2022/04/10 07:39:19;;;;;;;11.95;3.78;;;;;;;4.10;75.00;101997.63;4987103;28;20034;-78
2022/04/10 07:41:45;;;;;;;8.50;3.83;;;;;;;4.16;74.21;101996.00;4985421;28;20050;-79
2022/04/10 07:44:10;;;;;;;7.70;3.67;;;;;;;4.24;74.47;102005.63;4986264;28;20034;-79
2022/04/10 07:49:19;;;;;;;7.95;3.70;;;;;;;4.41;74.04;102005.06;4986756;28;20072;-79
2022/04/10 07:51:44;;;;;;;6.35;3.40;;;;;;;4.49;73.85;102012.94;4988782;28;20062;-79
2022/04/10 07:54:11;;;;;;;9.15;3.33;;;;;;;4.58;72.73;102013.13;4985230;28;20478;-79
2022/04/10 07:56:36;;;;;;;7.88;2.88;;;;;;;4.70;72.23;102015.03;4985344;28;20034;-78
2022/04/10 07:59:01;;;;;;;5.47;2.92;;;;;;;4.88;73.01;102019.66;4989402;28;20026;-78
2022/04/10 08:01:27;;;;;;;6.78;2.63;;;;;;;5.07;70.10;102025.13;4987050;28;20069;-79
2022/04/10 08:03:53;;;;;;;5.85;2.20;;;;;;;5.20;68.29;102028.78;4986950;28;20030;-78
2022/04/10 08:06:19;;;;;;;6.28;2.83;;;;;;;5.28;69.41;102033.22;4987185;28;20030;-78
2022/04/10 08:08:45;;;;;;;9.93;2.72;;;;;;;5.36;69.08;102047.94;4985780;28;20065;-79
2022/04/10 08:11:10;;;;;;;5.57;2.50;;;;;;;5.41;69.00;102038.56;4988072;28;20061;-79
2022/04/10 08:13:35;;;;;;;6.30;2.58;;;;;;;5.51;70.28;102048.16;4984956;28;20038;-78
2022/04/10 08:16:01;;;;;;;5.60;2.78;;;;;;;5.61;70.00;102056.91;4989843;28;20034;-79
2022/04/10 08:18:27;;;;;;;5.47;2.42;;;;;;;5.71;70.04;102065.66;4989037;28;20401;-78
2022/04/10 08:20:52;;;;;;;6.20;2.10;;;;;;;5.70;68.39;102063.91;4970910;28;20026;-78
2022/04/10 08:23:18;;;;;;;7.68;2.15;;;;;;;5.55;67.78;102064.56;4985590;28;20033;-78
2022/04/10 08:25:43;;;;;;;6.60;2.10;;;;;;;5.47;68.74;102067.91;4984988;28;20530;-78
2022/04/10 08:28:08;;;;;;;3.95;1.75;;;;;;;5.45;69.23;102066.16;4983766;28;20036;-78
2022/04/10 08:30:34;;;;;;;4.25;1.48;;;;;;;5.46;69.39;102070.47;4985892;28;20038;-79
2022/04/10 08:32:59;;;;;;;4.45;1.48;;;;;;;5.47;69.54;102067.91;4984223;28;20026;-78
2022/04/10 08:35:24;;;;;;;6.97;1.60;;;;;;;5.51;69.87;102071.38;4985043;28;20028;-79
2022/04/10 08:37:51;;;;;;;7.13;1.73;;;;;;;5.56;68.21;102079.19;4968175;28;20034;-79
2022/04/10 08:40:16;;;;;;;5.07;1.50;;;;;;;5.56;68.10;102074.91;4985848;28;20062;-78
2022/04/10 08:42:42;;;;;;;3.50;1.58;;;;;;;5.59;69.71;102074.06;4985103;28;20073;-78
2022/04/10 08:45:08;;;;;;;5.15;1.50;;;;;;;5.62;68.55;102072.44;4987613;28;20393;-79
2022/04/10 08:47:34;;;;;;;3.40;1.50;;;;;;;5.66;68.23;102078.50;4983821;28;20053;-79
2022/04/10 08:50:01;;;;;;;7.00;1.73;;;;;;;5.70;67.25;102074.25;4985705;28;20038;-79
2022/04/10 08:52:27;;;;;;;7.60;1.52;;;;;;;5.72;67.76;102075.13;4984742;28;20034;-79
2022/04/10 08:54:52;;;;;;;5.45;1.95;;;;;;;5.74;67.06;102074.31;4984868;28;20394;-78
2022/04/10 08:57:18;;;;;;;5.32;1.65;;;;;;;5.76;66.56;102079.50;4987362;28;20140;-78
2022/04/10 08:59:43;;;;;;;6.68;1.83;;;;;;;5.77;65.11;102071.78;4985694;28;20026;-79
2022/04/10 09:02:12;;;;;;;5.60;2.10;;;;;;;5.76;65.87;102082.09;4986522;28;20771;-79
2022/04/10 09:04:39;;;;;;;9.38;1.88;;;;;;;5.76;66.39;102080.34;4984089;28;20101;-80
2022/04/10 09:07:09;;;;;;;7.22;2.10;;;;;;;5.81;65.59;102077.84;4983282;28;20088;-79
2022/04/10 09:09:40;;;;;;;7.67;2.07;;;;;;;5.86;67.37;102081.34;4983909;28;20054;-79
2022/04/10 09:12:06;;;;;;;5.57;1.60;;;;;;;5.93;66.89;102082.31;4983346;28;21220;-78
2022/04/10 09:14:40;;;;;;;7.15;1.63;;;;;;;5.98;65.51;102079.81;4985789;28;20489;-79
2022/04/10 09:17:13;;;;;;;4.00;1.58;;;;;;;6.04;65.99;102079.91;4981646;28;20046;-78
2022/04/10 09:19:41;;;;;;;7.68;1.75;;;;;;;6.10;63.65;102089.44;4983430;28;20041;-79
2022/04/10 09:22:30;;;;;;;5.53;1.83;;;;;;;6.18;66.31;102080.94;4982856;28;20042;-79
2022/04/10 09:25:14;;;;;;;6.57;1.83;;;;;;;6.32;67.52;102085.44;4984923;28;20085;-78
2022/04/10 09:27:41;;;;;;;4.80;1.38;;;;;;;6.44;63.11;102085.56;4983963;28;20108;-79
2022/04/10 09:30:09;;;;;;;6.97;1.70;;;;;;;6.57;61.12;102080.53;4983920;28;20054;-79
2022/04/10 09:32:39;;;;;;;6.10;1.80;;;;;;;6.68;63.60;102076.34;4983568;28;20026;-78
2022/04/10 09:35:05;;;;;;;3.80;1.27;;;;;;;6.74;58.89;102079.00;4982334;28;20104;-79
2022/04/10 09:37:45;;;;;;;4.25;1.20;;;;;;;6.73;61.39;102076.41;4984765;28;20065;-79
2022/04/10 09:40:30;;;;;;;6.72;1.50;;;;;;;6.80;63.82;102073.91;4964772;28;20485;-79
2022/04/10 09:43:05;;;;;;;4.30;1.30;;;;;;;6.83;61.20;102079.06;4981839;28;20026;-79
2022/04/10 09:45:43;;;;;;;5.30;1.38;;;;;;;6.83;60.64;102075.63;4982610;28;20117;-78
2022/04/10 09:48:22;;;;;;;4.80;1.20;;;;;;;6.81;59.99;102085.09;4981041;28;20377;-79
2022/04/10 09:50:59;;;;;;;4.35;1.30;;;;;;;6.84;60.85;102078.22;4980471;28;20045;-79
2022/04/10 09:53:26;;;;;;;3.13;1.20;;;;;;;7.02;61.23;102079.25;4980483;28;20049;-78
2022/04/10 09:55:54;;;;;;;2.55;1.10;;;;;;;7.11;58.06;102074.19;4984549;28;20026;-78
2022/04/10 09:58:20;;;;;;;5.13;0.95;;;;;;;7.20;56.70;102077.69;4983112;28;20058;-78
2022/04/10 10:00:46;;;;;;;4.53;0.90;;;;;;;7.30;57.10;102079.50;4984118;28;20026;-78
2022/04/10 10:03:13;;;;;;;5.90;1.02;;;;;;;7.38;56.64;102072.66;4983731;28;20366;-78
2022/04/10 10:05:39;;;;;;;2.65;1.00;;;;;;;7.49;57.11;102074.47;4983063;28;20030;-78
2022/04/10 10:08:06;;;;;;;2.15;1.10;;;;;;;7.60;55.86;102067.63;4984973;28;20100;-78
2022/04/10 10:10:34;;;;;;;3.25;1.00;;;;;;;7.74;58.70;102073.75;4983552;28;20092;-78
2022/04/10 10:13:01;;;;;;;1.90;0.90;;;;;;;7.97;58.87;102062.66;4983931;28;20433;-78
2022/04/10 10:15:27;;;;;;;4.07;1.00;;;;;;;8.09;55.77;102066.16;4984957;28;20117;-78
2022/04/10 10:17:53;;;;;;;2.67;1.20;;;;;;;8.07;58.05;102062.69;4984465;28;20118;-78
2022/04/10 10:20:20;;;;;;;2.55;0.95;;;;;;;8.04;53.11;102061.81;4986019;28;20117;-78
2022/04/10 10:22:45;;;;;;;3.40;0.98;;;;;;;7.90;54.62;102071.25;4987184;28;20588;-79
2022/04/10 10:25:24;;;;;;;4.22;1.30;;;;;;;7.80;54.50;102064.28;4986831;28;20085;-79
2022/04/10 10:27:56;;;;;;;4.65;0.90;;;;;;;7.69;56.52;102066.81;4967474;28;20117;-78
2022/04/10 10:30:51;;;;;;;2.78;1.15;;;;;;;7.69;56.58;102064.22;4988517;28;20057;-78
2022/04/10 10:33:22;;;;;;;4.57;1.13;;;;;;;7.69;53.97;102067.66;4985517;28;20113;-79
2022/04/10 10:35:58;;;;;;;3.28;1.15;;;;;;;7.73;56.49;102059.06;4987389;28;20060;-78
2022/04/10 10:38:25;;;;;;;2.25;0.82;;;;;;;7.85;56.00;102057.44;4984999;28;20110;-79
2022/04/10 10:40:52;;;;;;;2.92;1.10;;;;;;;7.95;55.43;102064.38;4987240;28;20038;-79
2022/04/10 10:43:22;;;;;;;2.40;0.90;;;;;;;7.98;51.61;102064.41;4985553;28;20117;-78
2022/04/10 10:45:54;;;;;;;6.83;1.10;;;;;;;7.93;52.68;102060.91;4987899;28;20161;-78
2022/04/10 10:48:38;;;;;;;;;;;;;;;7.88;54.76;102062.59;4989108;28;20113;-79
2022/04/10 10:51:09;;;;;;;2.88;0.90;;;;;;;7.85;52.43;102063.47;4988197;28;19925;-79
2022/04/10 10:53:46;;;;;;;4.75;0.90;;;;;;;7.97;52.84;102064.38;4986026;28;20141;-77
2022/04/10 10:56:19;;;;;;;3.60;1.20;;;;;;;8.10;53.46;102070.47;4982809;28;20034;-78
2022/04/10 10:58:47;;;;;;;4.18;1.00;;;;;;;8.23;51.64;102061.88;4985963;28;20518;-77
2022/04/10 11:01:23;;;;;;;2.53;1.27;;;;;;;8.35;53.28;102063.66;4986856;28;20030;-78
2022/04/10 11:04:05;;;;;;;3.70;1.05;;;;;;;8.40;53.13;102061.06;4986784;28;20116;-78
2022/04/10 11:06:42;;;;;;;2.72;1.05;;;;;;;8.44;53.17;102052.44;4986121;28;20037;-79
2022/04/10 11:09:28;;;;;;;2.88;1.00;;;;;;;8.53;52.17;102065.50;4985375;28;20378;-79
2022/04/10 11:11:56;;;;;;;2.13;0.88;;;;;;;8.62;50.87;102059.47;4987575;28;20477;-79
2022/04/10 11:14:41;;;;;;;3.63;0.98;;;;;;;8.65;51.79;102046.47;4984220;28;20034;-79
2022/04/10 11:17:35;;;;;;;3.95;0.90;;;;;;;8.69;53.04;102057.75;4985019;28;20128;-79
2022/04/10 11:20:07;;;;;;;5.15;1.20;;;;;;;8.72;51.27;102052.53;4986954;28;20037;-79
2022/04/10 11:22:47;;;;;;;2.25;0.80;;;;;;;8.71;51.51;102051.69;4986502;28;20026;-78
2022/04/10 11:25:13;;;;;;;1.75;0.70;;;;;;;8.76;48.84;102049.09;4985215;28;20084;-78
2022/04/10 11:27:56;;;;;;;3.35;0.82;;;;;;;8.92;47.10;102045.63;4987810;28;20030;-78
2022/04/10 11:30:33;;;;;;;2.60;0.98;;;;;;;9.14;50.11;102040.47;4985987;28;20038;-79
2022/04/10 11:32:58;;;;;;;2.88;1.00;;;;;;;9.29;47.96;102054.28;4984489;28;20034;-78
2022/04/10 11:35:28;;;;;;;3.80;1.00;;;;;;;9.19;50.20;102043.94;4984094;28;20033;-78
2022/04/10 11:37:59;;;;;;;2.72;1.00;;;;;;;9.17;49.21;102039.59;4986811;28;20039;-77
2022/04/10 11:40:28;;;;;;;3.70;0.90;;;;;;;9.29;47.77;102036.13;4987431;28;20088;-78